sensor_id;sensor_type;location;lat;lon;timestamp;P1;durP1;ratioP1;P2;durP2;ratioP2
31770;SDS011;18343;50.152;8.182;2024-02-28T00:00:28;79.57;;;38.10;;
31770;SDS011;18343;50.152;8.182;2024-02-28T00:03:13;72.28;;;36.35;;
31770;SDS011;18343;50.152;8.182;2024-02-28T00:05:57;118.88;;;54.42;;
31770;SDS011;18343;50.152;8.182;2024-02-28T00:08:42;83.18;;;41.60;;
31770;SDS011;18343;50.152;8.182;2024-02-28T00:11:28;72.90;;;36.90;;
31770;SDS011;18343;50.152;8.182;2024-02-28T00:14:13;72.80;;;37.80;;
31770;SDS011;18343;50.152;8.182;2024-02-28T00:16:58;95.80;;;46.10;;
31770;SDS011;18343;50.152;8.182;2024-02-28T00:19:42;66.55;;;34.65;;
31770;SDS011;18343;50.152;8.182;2024-02-28T00:22:27;74.15;;;36.95;;
31770;SDS011;18343;50.152;8.182;2024-02-28T00:25:12;119.25;;;52.85;;
31770;SDS011;18343;50.152;8.182;2024-02-28T00:27:59;116.85;;;52.67;;
31770;SDS011;18343;50.152;8.182;2024-02-28T00:30:43;78.65;;;38.90;;
31770;SDS011;18343;50.152;8.182;2024-02-28T00:33:28;76.93;;;38.08;;
31770;SDS011;18343;50.152;8.182;2024-02-28T00:36:12;73.07;;;36.47;;
31770;SDS011;18343;50.152;8.182;2024-02-28T00:38:57;81.95;;;38.30;;
31770;SDS011;18343;50.152;8.182;2024-02-28T00:41:42;105.35;;;41.58;;
31770;SDS011;18343;50.152;8.182;2024-02-28T00:44:27;97.28;;;42.78;;
31770;SDS011;18343;50.152;8.182;2024-02-28T00:47:12;106.00;;;42.58;;
31770;SDS011;18343;50.152;8.182;2024-02-28T00:49:56;133.43;;;42.00;;
31770;SDS011;18343;50.152;8.182;2024-02-28T00:52:41;101.25;;;42.80;;
31770;SDS011;18343;50.152;8.182;2024-02-28T00:55:25;99.18;;;42.65;;
31770;SDS011;18343;50.152;8.182;2024-02-28T00:58:10;90.70;;;39.92;;
31770;SDS011;18343;50.152;8.182;2024-02-28T01:00:56;90.13;;;39.78;;
31770;SDS011;18343;50.152;8.182;2024-02-28T01:03:40;83.80;;;37.72;;
31770;SDS011;18343;50.152;8.182;2024-02-28T01:06:25;77.70;;;35.28;;
31770;SDS011;18343;50.152;8.182;2024-02-28T01:09:09;80.85;;;35.20;;
31770;SDS011;18343;50.152;8.182;2024-02-28T01:11:54;80.85;;;37.38;;
31770;SDS011;18343;50.152;8.182;2024-02-28T01:14:39;78.97;;;37.10;;
31770;SDS011;18343;50.152;8.182;2024-02-28T01:17:25;77.05;;;33.60;;
31770;SDS011;18343;50.152;8.182;2024-02-28T01:20:10;81.35;;;36.13;;
31770;SDS011;18343;50.152;8.182;2024-02-28T01:22:54;83.35;;;36.63;;
31770;SDS011;18343;50.152;8.182;2024-02-28T01:25:39;88.93;;;38.50;;
31770;SDS011;18343;50.152;8.182;2024-02-28T01:28:23;129.93;;;38.92;;
31770;SDS011;18343;50.152;8.182;2024-02-28T01:31:07;110.97;;;37.45;;
31770;SDS011;18343;50.152;8.182;2024-02-28T01:33:54;91.63;;;39.67;;
31770;SDS011;18343;50.152;8.182;2024-02-28T01:36:38;101.50;;;37.75;;
31770;SDS011;18343;50.152;8.182;2024-02-28T01:39:23;107.07;;;37.55;;
31770;SDS011;18343;50.152;8.182;2024-02-28T01:42:10;110.05;;;37.88;;
31770;SDS011;18343;50.152;8.182;2024-02-28T01:44:54;98.22;;;37.20;;
31770;SDS011;18343;50.152;8.182;2024-02-28T01:47:39;103.97;;;35.97;;
31770;SDS011;18343;50.152;8.182;2024-02-28T01:50:25;165.95;;;38.03;;
31770;SDS011;18343;50.152;8.182;2024-02-28T01:53:10;93.50;;;36.85;;
31770;SDS011;18343;50.152;8.182;2024-02-28T01:55:55;153.07;;;35.83;;
31770;SDS011;18343;50.152;8.182;2024-02-28T01:58:40;162.43;;;38.85;;
31770;SDS011;18343;50.152;8.182;2024-02-28T02:01:26;241.77;;;40.55;;
31770;SDS011;18343;50.152;8.182;2024-02-28T02:04:10;113.32;;;37.17;;
31770;SDS011;18343;50.152;8.182;2024-02-28T02:06:56;285.65;;;41.15;;
31770;SDS011;18343;50.152;8.182;2024-02-28T02:09:41;177.63;;;36.38;;
31770;SDS011;18343;50.152;8.182;2024-02-28T02:12:25;189.55;;;39.25;;
31770;SDS011;18343;50.152;8.182;2024-02-28T02:15:10;185.75;;;38.33;;
31770;SDS011;18343;50.152;8.182;2024-02-28T02:17:54;197.85;;;39.03;;
31770;SDS011;18343;50.152;8.182;2024-02-28T02:20:40;245.38;;;37.90;;
31770;SDS011;18343;50.152;8.182;2024-02-28T02:23:31;141.30;;;39.78;;
31770;SDS011;18343;50.152;8.182;2024-02-28T02:26:15;278.35;;;39.22;;
31770;SDS011;18343;50.152;8.182;2024-02-28T02:29:00;301.17;;;38.75;;
31770;SDS011;18343;50.152;8.182;2024-02-28T02:31:45;232.80;;;40.03;;
31770;SDS011;18343;50.152;8.182;2024-02-28T02:34:29;323.83;;;38.33;;
31770;SDS011;18343;50.152;8.182;2024-02-28T02:37:14;219.00;;;36.13;;
31770;SDS011;18343;50.152;8.182;2024-02-28T02:40:00;362.92;;;43.63;;
31770;SDS011;18343;50.152;8.182;2024-02-28T02:42:44;295.42;;;38.47;;
31770;SDS011;18343;50.152;8.182;2024-02-28T02:45:29;313.95;;;37.88;;
31770;SDS011;18343;50.152;8.182;2024-02-28T02:48:13;281.38;;;39.95;;
31770;SDS011;18343;50.152;8.182;2024-02-28T02:50:58;272.05;;;37.72;;
31770;SDS011;18343;50.152;8.182;2024-02-28T02:53:42;214.93;;;37.10;;
31770;SDS011;18343;50.152;8.182;2024-02-28T02:56:28;327.00;;;40.70;;
31770;SDS011;18343;50.152;8.182;2024-02-28T02:59:13;150.18;;;36.22;;
31770;SDS011;18343;50.152;8.182;2024-02-28T03:01:57;185.85;;;36.45;;
31770;SDS011;18343;50.152;8.182;2024-02-28T03:04:42;258.63;;;36.72;;
31770;SDS011;18343;50.152;8.182;2024-02-28T03:07:26;132.45;;;34.97;;
31770;SDS011;18343;50.152;8.182;2024-02-28T03:10:11;203.13;;;33.67;;
31770;SDS011;18343;50.152;8.182;2024-02-28T03:12:57;273.98;;;37.78;;
31770;SDS011;18343;50.152;8.182;2024-02-28T03:15:41;236.82;;;35.90;;
31770;SDS011;18343;50.152;8.182;2024-02-28T03:18:25;285.42;;;34.70;;
31770;SDS011;18343;50.152;8.182;2024-02-28T03:21:10;224.30;;;36.03;;
31770;SDS011;18343;50.152;8.182;2024-02-28T03:23:55;286.33;;;38.65;;
31770;SDS011;18343;50.152;8.182;2024-02-28T03:26:39;367.50;;;37.85;;
31770;SDS011;18343;50.152;8.182;2024-02-28T03:29:25;218.52;;;30.45;;
31770;SDS011;18343;50.152;8.182;2024-02-28T03:32:09;304.25;;;34.30;;
31770;SDS011;18343;50.152;8.182;2024-02-28T03:34:55;122.30;;;33.33;;
31770;SDS011;18343;50.152;8.182;2024-02-28T03:37:39;249.82;;;36.50;;
31770;SDS011;18343;50.152;8.182;2024-02-28T03:40:23;407.42;;;39.42;;
31770;SDS011;18343;50.152;8.182;2024-02-28T03:43:08;471.38;;;39.05;;
31770;SDS011;18343;50.152;8.182;2024-02-28T03:45:53;296.17;;;36.28;;
31770;SDS011;18343;50.152;8.182;2024-02-28T03:48:38;118.13;;;36.30;;
31770;SDS011;18343;50.152;8.182;2024-02-28T03:51:22;213.27;;;36.08;;
31770;SDS011;18343;50.152;8.182;2024-02-28T03:54:07;303.27;;;36.58;;
31770;SDS011;18343;50.152;8.182;2024-02-28T03:56:52;169.07;;;33.63;;
31770;SDS011;18343;50.152;8.182;2024-02-28T03:59:36;196.35;;;31.52;;
31770;SDS011;18343;50.152;8.182;2024-02-28T04:02:22;139.23;;;28.77;;
31770;SDS011;18343;50.152;8.182;2024-02-28T04:05:07;147.50;;;31.42;;
31770;SDS011;18343;50.152;8.182;2024-02-28T04:07:51;103.32;;;31.52;;
31770;SDS011;18343;50.152;8.182;2024-02-28T04:10:36;143.85;;;29.65;;
31770;SDS011;18343;50.152;8.182;2024-02-28T04:13:21;96.75;;;30.30;;
31770;SDS011;18343;50.152;8.182;2024-02-28T04:16:06;232.52;;;34.28;;
31770;SDS011;18343;50.152;8.182;2024-02-28T04:18:53;149.65;;;31.30;;
31770;SDS011;18343;50.152;8.182;2024-02-28T04:21:37;296.75;;;32.47;;
31770;SDS011;18343;50.152;8.182;2024-02-28T04:24:22;337.27;;;35.15;;
31770;SDS011;18343;50.152;8.182;2024-02-28T04:27:06;293.42;;;34.33;;
31770;SDS011;18343;50.152;8.182;2024-02-28T04:29:51;155.38;;;32.67;;
31770;SDS011;18343;50.152;8.182;2024-02-28T04:32:35;159.80;;;33.25;;
31770;SDS011;18343;50.152;8.182;2024-02-28T04:35:21;181.68;;;33.85;;
31770;SDS011;18343;50.152;8.182;2024-02-28T04:38:06;181.90;;;33.75;;
31770;SDS011;18343;50.152;8.182;2024-02-28T04:40:50;160.98;;;33.58;;
31770;SDS011;18343;50.152;8.182;2024-02-28T04:43:35;139.25;;;30.92;;
31770;SDS011;18343;50.152;8.182;2024-02-28T04:46:19;182.48;;;33.22;;
31770;SDS011;18343;50.152;8.182;2024-02-28T04:49:04;95.50;;;34.20;;
31770;SDS011;18343;50.152;8.182;2024-02-28T04:51:49;201.88;;;36.17;;
31770;SDS011;18343;50.152;8.182;2024-02-28T04:54:34;171.40;;;35.38;;
31770;SDS011;18343;50.152;8.182;2024-02-28T04:57:19;110.47;;;35.28;;
31770;SDS011;18343;50.152;8.182;2024-02-28T05:00:04;115.93;;;33.45;;
31770;SDS011;18343;50.152;8.182;2024-02-28T05:02:50;134.30;;;34.72;;
31770;SDS011;18343;50.152;8.182;2024-02-28T05:05:34;136.80;;;30.67;;
31770;SDS011;18343;50.152;8.182;2024-02-28T05:08:20;122.60;;;35.20;;
31770;SDS011;18343;50.152;8.182;2024-02-28T05:11:05;105.75;;;36.70;;
31770;SDS011;18343;50.152;8.182;2024-02-28T05:13:50;153.73;;;37.55;;
31770;SDS011;18343;50.152;8.182;2024-02-28T05:16:34;137.23;;;36.35;;
31770;SDS011;18343;50.152;8.182;2024-02-28T05:19:19;139.15;;;37.28;;
31770;SDS011;18343;50.152;8.182;2024-02-28T05:22:03;125.85;;;38.72;;
31770;SDS011;18343;50.152;8.182;2024-02-28T05:24:49;165.95;;;34.60;;
31770;SDS011;18343;50.152;8.182;2024-02-28T05:27:34;107.35;;;32.90;;
31770;SDS011;18343;50.152;8.182;2024-02-28T05:30:18;135.52;;;31.90;;
31770;SDS011;18343;50.152;8.182;2024-02-28T05:33:03;108.70;;;30.85;;
31770;SDS011;18343;50.152;8.182;2024-02-28T05:35:48;113.28;;;30.63;;
31770;SDS011;18343;50.152;8.182;2024-02-28T05:38:33;107.40;;;32.63;;
31770;SDS011;18343;50.152;8.182;2024-02-28T05:41:18;88.10;;;33.13;;
31770;SDS011;18343;50.152;8.182;2024-02-28T05:44:03;131.35;;;32.63;;
31770;SDS011;18343;50.152;8.182;2024-02-28T05:46:48;101.65;;;31.48;;
31770;SDS011;18343;50.152;8.182;2024-02-28T05:49:32;94.05;;;32.75;;
31770;SDS011;18343;50.152;8.182;2024-02-28T05:52:17;112.70;;;32.47;;
31770;SDS011;18343;50.152;8.182;2024-02-28T05:55:01;114.40;;;32.75;;
31770;SDS011;18343;50.152;8.182;2024-02-28T05:57:48;124.93;;;33.40;;
31770;SDS011;18343;50.152;8.182;2024-02-28T06:00:33;95.68;;;34.80;;
31770;SDS011;18343;50.152;8.182;2024-02-28T06:03:18;95.28;;;32.60;;
31770;SDS011;18343;50.152;8.182;2024-02-28T06:06:03;108.47;;;35.25;;
31770;SDS011;18343;50.152;8.182;2024-02-28T06:08:48;104.65;;;33.22;;
31770;SDS011;18343;50.152;8.182;2024-02-28T06:11:33;94.38;;;33.15;;
31770;SDS011;18343;50.152;8.182;2024-02-28T06:14:18;107.10;;;33.70;;
31770;SDS011;18343;50.152;8.182;2024-02-28T06:17:03;87.07;;;31.30;;
31770;SDS011;18343;50.152;8.182;2024-02-28T06:19:48;93.18;;;34.67;;
31770;SDS011;18343;50.152;8.182;2024-02-28T06:22:33;83.00;;;30.65;;
31770;SDS011;18343;50.152;8.182;2024-02-28T06:25:17;89.75;;;32.40;;
31770;SDS011;18343;50.152;8.182;2024-02-28T06:28:02;110.03;;;31.90;;
31770;SDS011;18343;50.152;8.182;2024-02-28T06:30:49;95.28;;;30.45;;
31770;SDS011;18343;50.152;8.182;2024-02-28T06:33:33;81.75;;;27.30;;
31770;SDS011;18343;50.152;8.182;2024-02-28T06:36:18;86.43;;;29.90;;
31770;SDS011;18343;50.152;8.182;2024-02-28T06:39:02;95.80;;;30.92;;
31770;SDS011;18343;50.152;8.182;2024-02-28T06:41:47;105.43;;;31.33;;
31770;SDS011;18343;50.152;8.182;2024-02-28T06:44:31;91.50;;;32.97;;
31770;SDS011;18343;50.152;8.182;2024-02-28T06:47:17;101.20;;;33.85;;
31770;SDS011;18343;50.152;8.182;2024-02-28T06:50:02;92.85;;;32.25;;
31770;SDS011;18343;50.152;8.182;2024-02-28T06:52:47;121.55;;;34.05;;
31770;SDS011;18343;50.152;8.182;2024-02-28T06:55:32;114.18;;;32.63;;
31770;SDS011;18343;50.152;8.182;2024-02-28T06:58:17;95.10;;;34.10;;
31770;SDS011;18343;50.152;8.182;2024-02-28T07:01:01;102.47;;;33.38;;
31770;SDS011;18343;50.152;8.182;2024-02-28T07:03:48;116.55;;;33.25;;
31770;SDS011;18343;50.152;8.182;2024-02-28T07:06:33;91.13;;;31.70;;
31770;SDS011;18343;50.152;8.182;2024-02-28T07:09:17;141.02;;;31.80;;
31770;SDS011;18343;50.152;8.182;2024-02-28T07:12:02;112.22;;;30.33;;
31770;SDS011;18343;50.152;8.182;2024-02-28T07:14:47;110.03;;;32.78;;
31770;SDS011;18343;50.152;8.182;2024-02-28T07:17:31;97.05;;;31.55;;
31770;SDS011;18343;50.152;8.182;2024-02-28T07:20:17;99.85;;;33.17;;
31770;SDS011;18343;50.152;8.182;2024-02-28T07:23:02;94.60;;;30.38;;
31770;SDS011;18343;50.152;8.182;2024-02-28T07:25:46;111.07;;;29.67;;
31770;SDS011;18343;50.152;8.182;2024-02-28T07:28:31;97.80;;;28.52;;
31770;SDS011;18343;50.152;8.182;2024-02-28T07:31:15;88.30;;;28.23;;
31770;SDS011;18343;50.152;8.182;2024-02-28T07:34:00;80.53;;;28.92;;
31770;SDS011;18343;50.152;8.182;2024-02-28T07:36:46;93.05;;;30.65;;
31770;SDS011;18343;50.152;8.182;2024-02-28T07:39:31;93.28;;;29.27;;
31770;SDS011;18343;50.152;8.182;2024-02-28T07:42:16;82.43;;;28.45;;
31770;SDS011;18343;50.152;8.182;2024-02-28T07:45:00;88.15;;;29.63;;
31770;SDS011;18343;50.152;8.182;2024-02-28T07:47:45;76.38;;;26.70;;
31770;SDS011;18343;50.152;8.182;2024-02-28T07:50:29;81.63;;;27.60;;
31770;SDS011;18343;50.152;8.182;2024-02-28T07:53:16;98.57;;;29.63;;
31770;SDS011;18343;50.152;8.182;2024-02-28T07:56:01;90.10;;;28.48;;
31770;SDS011;18343;50.152;8.182;2024-02-28T07:58:45;81.03;;;27.77;;
31770;SDS011;18343;50.152;8.182;2024-02-28T08:01:30;87.00;;;26.05;;
31770;SDS011;18343;50.152;8.182;2024-02-28T08:04:15;97.05;;;30.45;;
31770;SDS011;18343;50.152;8.182;2024-02-28T08:06:59;88.63;;;28.33;;
31770;SDS011;18343;50.152;8.182;2024-02-28T08:09:45;113.25;;;29.02;;
31770;SDS011;18343;50.152;8.182;2024-02-28T08:12:30;88.47;;;28.15;;
31770;SDS011;18343;50.152;8.182;2024-02-28T08:15:14;86.93;;;28.27;;
31770;SDS011;18343;50.152;8.182;2024-02-28T08:17:59;78.10;;;28.30;;
31770;SDS011;18343;50.152;8.182;2024-02-28T08:20:43;113.68;;;28.02;;
31770;SDS011;18343;50.152;8.182;2024-02-28T08:23:28;78.25;;;27.02;;
31770;SDS011;18343;50.152;8.182;2024-02-28T08:26:14;74.88;;;27.10;;
31770;SDS011;18343;50.152;8.182;2024-02-28T08:28:59;91.20;;;28.73;;
31770;SDS011;18343;50.152;8.182;2024-02-28T08:31:44;78.05;;;28.60;;
31770;SDS011;18343;50.152;8.182;2024-02-28T08:34:28;86.55;;;27.63;;
31770;SDS011;18343;50.152;8.182;2024-02-28T08:37:13;75.90;;;27.70;;
31770;SDS011;18343;50.152;8.182;2024-02-28T08:39:57;75.03;;;26.27;;
31770;SDS011;18343;50.152;8.182;2024-02-28T08:42:46;75.75;;;26.65;;
31770;SDS011;18343;50.152;8.182;2024-02-28T08:45:31;71.15;;;26.40;;
31770;SDS011;18343;50.152;8.182;2024-02-28T08:48:16;75.40;;;26.30;;
31770;SDS011;18343;50.152;8.182;2024-02-28T08:51:01;74.43;;;26.73;;
31770;SDS011;18343;50.152;8.182;2024-02-28T08:53:46;68.32;;;24.63;;
31770;SDS011;18343;50.152;8.182;2024-02-28T08:56:30;73.15;;;25.15;;
31770;SDS011;18343;50.152;8.182;2024-02-28T08:59:16;62.97;;;24.45;;
31770;SDS011;18343;50.152;8.182;2024-02-28T09:02:00;66.35;;;24.42;;
31770;SDS011;18343;50.152;8.182;2024-02-28T09:04:49;66.78;;;25.17;;
31770;SDS011;18343;50.152;8.182;2024-02-28T09:07:33;67.07;;;24.70;;
31770;SDS011;18343;50.152;8.182;2024-02-28T09:10:17;67.65;;;25.63;;
31770;SDS011;18343;50.152;8.182;2024-02-28T09:13:02;59.72;;;22.38;;
31770;SDS011;18343;50.152;8.182;2024-02-28T09:15:48;67.80;;;25.13;;
31770;SDS011;18343;50.152;8.182;2024-02-28T09:18:32;73.72;;;27.75;;
31770;SDS011;18343;50.152;8.182;2024-02-28T09:21:17;69.90;;;26.67;;
31770;SDS011;18343;50.152;8.182;2024-02-28T09:24:01;66.95;;;23.73;;
31770;SDS011;18343;50.152;8.182;2024-02-28T09:26:46;65.25;;;25.70;;
31770;SDS011;18343;50.152;8.182;2024-02-28T09:29:30;72.38;;;25.67;;
31770;SDS011;18343;50.152;8.182;2024-02-28T09:32:16;62.47;;;24.08;;
31770;SDS011;18343;50.152;8.182;2024-02-28T09:35:02;63.75;;;24.88;;
31770;SDS011;18343;50.152;8.182;2024-02-28T09:37:47;67.57;;;25.75;;
31770;SDS011;18343;50.152;8.182;2024-02-28T09:40:31;73.00;;;27.17;;
31770;SDS011;18343;50.152;8.182;2024-02-28T09:43:19;67.40;;;24.88;;
31770;SDS011;18343;50.152;8.182;2024-02-28T09:46:12;66.25;;;24.15;;
31770;SDS011;18343;50.152;8.182;2024-02-28T09:48:59;67.72;;;24.48;;
31770;SDS011;18343;50.152;8.182;2024-02-28T09:51:46;62.70;;;24.80;;
31770;SDS011;18343;50.152;8.182;2024-02-28T09:54:33;71.85;;;27.10;;
31770;SDS011;18343;50.152;8.182;2024-02-28T09:57:17;69.88;;;25.60;;
31770;SDS011;18343;50.152;8.182;2024-02-28T10:00:02;67.50;;;25.92;;
31770;SDS011;18343;50.152;8.182;2024-02-28T10:02:48;68.47;;;25.48;;
31770;SDS011;18343;50.152;8.182;2024-02-28T10:05:35;62.78;;;25.17;;
31770;SDS011;18343;50.152;8.182;2024-02-28T10:08:22;64.90;;;25.85;;
31770;SDS011;18343;50.152;8.182;2024-02-28T10:11:07;60.28;;;23.48;;
31770;SDS011;18343;50.152;8.182;2024-02-28T10:13:52;66.00;;;25.30;;
31770;SDS011;18343;50.152;8.182;2024-02-28T10:16:38;58.17;;;22.35;;
31770;SDS011;18343;50.152;8.182;2024-02-28T10:19:22;57.83;;;23.65;;
31770;SDS011;18343;50.152;8.182;2024-02-28T10:22:08;68.47;;;26.08;;
31770;SDS011;18343;50.152;8.182;2024-02-28T10:24:56;61.05;;;23.60;;
31770;SDS011;18343;50.152;8.182;2024-02-28T10:27:41;63.53;;;24.33;;
31770;SDS011;18343;50.152;8.182;2024-02-28T10:30:26;65.25;;;25.10;;
31770;SDS011;18343;50.152;8.182;2024-02-28T10:33:11;64.38;;;24.10;;
31770;SDS011;18343;50.152;8.182;2024-02-28T10:35:56;72.97;;;27.20;;
31770;SDS011;18343;50.152;8.182;2024-02-28T10:38:42;67.13;;;26.60;;
31770;SDS011;18343;50.152;8.182;2024-02-28T10:41:26;63.70;;;25.73;;
31770;SDS011;18343;50.152;8.182;2024-02-28T10:44:12;63.03;;;26.17;;
31770;SDS011;18343;50.152;8.182;2024-02-28T10:46:57;65.35;;;25.52;;
31770;SDS011;18343;50.152;8.182;2024-02-28T10:49:43;62.38;;;24.83;;
31770;SDS011;18343;50.152;8.182;2024-02-28T10:52:28;60.58;;;25.15;;
31770;SDS011;18343;50.152;8.182;2024-02-28T10:55:17;64.78;;;25.33;;
31770;SDS011;18343;50.152;8.182;2024-02-28T10:58:06;62.38;;;25.75;;
31770;SDS011;18343;50.152;8.182;2024-02-28T11:00:52;63.67;;;25.92;;
31770;SDS011;18343;50.152;8.182;2024-02-28T11:03:37;65.50;;;26.85;;
31770;SDS011;18343;50.152;8.182;2024-02-28T11:06:22;61.85;;;25.83;;
31770;SDS011;18343;50.152;8.182;2024-02-28T11:09:06;59.88;;;25.75;;
31770;SDS011;18343;50.152;8.182;2024-02-28T11:11:54;64.47;;;26.52;;
31770;SDS011;18343;50.152;8.182;2024-02-28T11:14:39;60.80;;;25.50;;
31770;SDS011;18343;50.152;8.182;2024-02-28T11:17:25;60.15;;;25.80;;
31770;SDS011;18343;50.152;8.182;2024-02-28T11:20:11;69.00;;;27.45;;
31770;SDS011;18343;50.152;8.182;2024-02-28T11:22:56;55.60;;;24.33;;
31770;SDS011;18343;50.152;8.182;2024-02-28T11:25:43;63.08;;;24.42;;
31770;SDS011;18343;50.152;8.182;2024-02-28T11:28:28;57.97;;;24.77;;
31770;SDS011;18343;50.152;8.182;2024-02-28T11:31:13;55.60;;;24.23;;
31770;SDS011;18343;50.152;8.182;2024-02-28T11:33:58;63.17;;;25.00;;
31770;SDS011;18343;50.152;8.182;2024-02-28T11:36:43;58.90;;;23.60;;
31770;SDS011;18343;50.152;8.182;2024-02-28T11:39:30;53.70;;;23.45;;
31770;SDS011;18343;50.152;8.182;2024-02-28T11:42:15;52.90;;;22.25;;
31770;SDS011;18343;50.152;8.182;2024-02-28T11:45:01;47.95;;;22.20;;
31770;SDS011;18343;50.152;8.182;2024-02-28T11:47:46;51.95;;;23.17;;
31770;SDS011;18343;50.152;8.182;2024-02-28T11:50:31;50.80;;;23.42;;
31770;SDS011;18343;50.152;8.182;2024-02-28T11:53:15;47.70;;;20.98;;
31770;SDS011;18343;50.152;8.182;2024-02-28T11:56:00;47.40;;;21.45;;
31770;SDS011;18343;50.152;8.182;2024-02-28T11:58:49;46.13;;;21.58;;
31770;SDS011;18343;50.152;8.182;2024-02-28T12:01:36;49.78;;;21.88;;
31770;SDS011;18343;50.152;8.182;2024-02-28T12:04:41;48.72;;;21.25;;
31770;SDS011;18343;50.152;8.182;2024-02-28T12:07:26;47.05;;;21.63;;
31770;SDS011;18343;50.152;8.182;2024-02-28T12:10:11;40.63;;;19.73;;
31770;SDS011;18343;50.152;8.182;2024-02-28T12:12:58;45.45;;;21.55;;
31770;SDS011;18343;50.152;8.182;2024-02-28T12:15:43;43.67;;;20.50;;
31770;SDS011;18343;50.152;8.182;2024-02-28T12:18:30;38.13;;;17.73;;
31770;SDS011;18343;50.152;8.182;2024-02-28T12:21:15;44.70;;;20.35;;
31770;SDS011;18343;50.152;8.182;2024-02-28T12:24:00;40.38;;;20.02;;
31770;SDS011;18343;50.152;8.182;2024-02-28T12:26:44;35.40;;;17.75;;
31770;SDS011;18343;50.152;8.182;2024-02-28T12:29:29;37.88;;;17.65;;
31770;SDS011;18343;50.152;8.182;2024-02-28T12:32:13;36.17;;;17.63;;
31770;SDS011;18343;50.152;8.182;2024-02-28T12:34:59;40.63;;;19.08;;
31770;SDS011;18343;50.152;8.182;2024-02-28T12:37:44;32.53;;;17.17;;
31770;SDS011;18343;50.152;8.182;2024-02-28T12:40:28;37.05;;;18.42;;
31770;SDS011;18343;50.152;8.182;2024-02-28T12:43:13;36.85;;;18.30;;
31770;SDS011;18343;50.152;8.182;2024-02-28T12:45:57;37.67;;;19.00;;
31770;SDS011;18343;50.152;8.182;2024-02-28T12:48:42;33.60;;;18.05;;
31770;SDS011;18343;50.152;8.182;2024-02-28T12:51:37;34.40;;;16.92;;
31770;SDS011;18343;50.152;8.182;2024-02-28T12:54:24;34.88;;;17.85;;
31770;SDS011;18343;50.152;8.182;2024-02-28T12:57:08;38.50;;;17.42;;
31770;SDS011;18343;50.152;8.182;2024-02-28T12:59:52;34.78;;;17.67;;
31770;SDS011;18343;50.152;8.182;2024-02-28T13:02:37;32.78;;;17.27;;
31770;SDS011;18343;50.152;8.182;2024-02-28T13:05:21;34.45;;;17.02;;
31770;SDS011;18343;50.152;8.182;2024-02-28T13:08:07;28.85;;;15.57;;
31770;SDS011;18343;50.152;8.182;2024-02-28T13:10:52;30.25;;;16.90;;
31770;SDS011;18343;50.152;8.182;2024-02-28T13:13:37;30.75;;;16.77;;
31770;SDS011;18343;50.152;8.182;2024-02-28T13:16:21;30.33;;;16.80;;
31770;SDS011;18343;50.152;8.182;2024-02-28T13:19:06;31.25;;;16.25;;
31770;SDS011;18343;50.152;8.182;2024-02-28T13:21:50;29.38;;;16.20;;
31770;SDS011;18343;50.152;8.182;2024-02-28T13:24:36;27.15;;;15.25;;
31770;SDS011;18343;50.152;8.182;2024-02-28T13:27:21;27.73;;;15.43;;
31770;SDS011;18343;50.152;8.182;2024-02-28T13:30:06;25.95;;;14.82;;
31770;SDS011;18343;50.152;8.182;2024-02-28T13:32:51;27.25;;;14.63;;
31770;SDS011;18343;50.152;8.182;2024-02-28T13:35:36;25.38;;;15.27;;
31770;SDS011;18343;50.152;8.182;2024-02-28T13:38:21;31.63;;;16.02;;
31770;SDS011;18343;50.152;8.182;2024-02-28T13:41:07;28.70;;;16.42;;
31770;SDS011;18343;50.152;8.182;2024-02-28T13:43:51;32.08;;;16.70;;
31770;SDS011;18343;50.152;8.182;2024-02-28T13:46:36;26.83;;;16.38;;
31770;SDS011;18343;50.152;8.182;2024-02-28T13:49:20;22.27;;;14.45;;
31770;SDS011;18343;50.152;8.182;2024-02-28T13:52:05;25.55;;;14.63;;
31770;SDS011;18343;50.152;8.182;2024-02-28T13:54:50;28.08;;;15.82;;
31770;SDS011;18343;50.152;8.182;2024-02-28T13:57:36;34.10;;;17.10;;
31770;SDS011;18343;50.152;8.182;2024-02-28T14:00:23;27.88;;;16.65;;
31770;SDS011;18343;50.152;8.182;2024-02-28T14:03:08;25.90;;;16.45;;
31770;SDS011;18343;50.152;8.182;2024-02-28T14:05:52;26.50;;;14.10;;
31770;SDS011;18343;50.152;8.182;2024-02-28T14:08:37;27.38;;;15.80;;
31770;SDS011;18343;50.152;8.182;2024-02-28T14:11:22;28.63;;;16.42;;
31770;SDS011;18343;50.152;8.182;2024-02-28T14:14:08;26.88;;;15.13;;
31770;SDS011;18343;50.152;8.182;2024-02-28T14:16:54;30.73;;;15.95;;
31770;SDS011;18343;50.152;8.182;2024-02-28T14:19:39;26.50;;;15.73;;
31770;SDS011;18343;50.152;8.182;2024-02-28T14:22:24;26.23;;;14.82;;
31770;SDS011;18343;50.152;8.182;2024-02-28T14:25:11;28.23;;;16.45;;
31770;SDS011;18343;50.152;8.182;2024-02-28T14:27:57;30.45;;;15.27;;
31770;SDS011;18343;50.152;8.182;2024-02-28T14:30:43;26.50;;;15.63;;
31770;SDS011;18343;50.152;8.182;2024-02-28T14:33:28;27.13;;;15.05;;
31770;SDS011;18343;50.152;8.182;2024-02-28T14:36:13;28.13;;;14.85;;
31770;SDS011;18343;50.152;8.182;2024-02-28T14:38:57;27.90;;;16.02;;
31770;SDS011;18343;50.152;8.182;2024-02-28T14:41:42;27.88;;;16.40;;
31770;SDS011;18343;50.152;8.182;2024-02-28T14:44:27;30.38;;;16.63;;
31770;SDS011;18343;50.152;8.182;2024-02-28T14:47:13;31.77;;;16.60;;
31770;SDS011;18343;50.152;8.182;2024-02-28T14:49:57;29.75;;;16.30;;
31770;SDS011;18343;50.152;8.182;2024-02-28T14:52:42;26.35;;;15.25;;
31770;SDS011;18343;50.152;8.182;2024-02-28T14:55:27;26.35;;;16.05;;
31770;SDS011;18343;50.152;8.182;2024-02-28T14:58:11;29.70;;;16.88;;
31770;SDS011;18343;50.152;8.182;2024-02-28T15:00:57;32.53;;;16.70;;
31770;SDS011;18343;50.152;8.182;2024-02-28T15:03:43;30.33;;;15.98;;
31770;SDS011;18343;50.152;8.182;2024-02-28T15:06:27;31.52;;;16.35;;
31770;SDS011;18343;50.152;8.182;2024-02-28T15:09:12;26.85;;;15.88;;
31770;SDS011;18343;50.152;8.182;2024-02-28T15:11:56;30.30;;;17.05;;
31770;SDS011;18343;50.152;8.182;2024-02-28T15:14:41;32.60;;;17.83;;
31770;SDS011;18343;50.152;8.182;2024-02-28T15:17:25;33.53;;;17.02;;
31770;SDS011;18343;50.152;8.182;2024-02-28T15:20:11;28.48;;;17.38;;
31770;SDS011;18343;50.152;8.182;2024-02-28T15:22:56;26.25;;;15.40;;
31770;SDS011;18343;50.152;8.182;2024-02-28T15:25:40;30.25;;;17.10;;
31770;SDS011;18343;50.152;8.182;2024-02-28T15:28:25;34.78;;;19.10;;
31770;SDS011;18343;50.152;8.182;2024-02-28T15:31:10;34.30;;;17.55;;
31770;SDS011;18343;50.152;8.182;2024-02-28T15:33:54;29.20;;;17.38;;
31770;SDS011;18343;50.152;8.182;2024-02-28T15:36:40;29.35;;;16.90;;
31770;SDS011;18343;50.152;8.182;2024-02-28T15:39:24;26.90;;;15.93;;
31770;SDS011;18343;50.152;8.182;2024-02-28T15:42:09;28.27;;;14.98;;
31770;SDS011;18343;50.152;8.182;2024-02-28T15:44:55;28.50;;;16.60;;
31770;SDS011;18343;50.152;8.182;2024-02-28T15:47:39;33.60;;;17.10;;
31770;SDS011;18343;50.152;8.182;2024-02-28T15:50:24;27.90;;;15.75;;
31770;SDS011;18343;50.152;8.182;2024-02-28T15:53:10;30.52;;;16.50;;
31770;SDS011;18343;50.152;8.182;2024-02-28T15:55:54;29.40;;;16.23;;
31770;SDS011;18343;50.152;8.182;2024-02-28T15:58:39;29.50;;;16.33;;
31770;SDS011;18343;50.152;8.182;2024-02-28T16:01:23;30.50;;;17.10;;